Time;durP1;ratioP1;P1;durP2;ratioP2;P2;SDS_P1;SDS_P2;PMS_P1;PMS_P2;Temp;Humidity;BMP_temperature;BMP_pressure;BME280_temperature;BME280_humidity;BME280_pressure;Samples;Min_cycle;Max_cycle;Signal;HPM_P1;HPM_P2
2022/08/15 00:01:42;;;;;;;3.28;1.00;;;;;;;26.97;33.17;99741.59;5175472;28;19917;-80
2022/08/15 00:04:14;;;;;;;0.30;0.30;;;;;;;26.97;32.64;99748.81;5182491;28;20040;-80
2022/08/15 00:06:46;;;;;;;0.43;0.40;;;;;;;26.96;32.88;99749.81;5162828;28;20149;-79
2022/08/15 00:09:21;;;;;;;12.75;0.52;;;;;;;26.94;33.13;99751.84;5170455;28;20049;-80
2022/08/15 00:11:55;;;;;;;0.22;0.22;;;;;;;26.76;32.93;99742.13;5166892;28;20037;-80
2022/08/15 00:14:30;;;;;;;0.20;0.20;;;;;;;26.74;32.66;99740.56;5214474;28;20103;-80
2022/08/15 00:17:09;;;;;;;0.55;0.55;;;;;;;26.73;32.96;99744.31;5181196;28;20466;-81
2022/08/15 00:19:44;;;;;;;0.50;0.50;;;;;;;26.64;33.09;99747.00;5179157;28;20029;-80
2022/08/15 00:22:18;;;;;;;0.20;0.20;;;;;;;26.69;33.19;99750.00;5169945;28;20395;-80
2022/08/15 00:24:57;;;;;;;0.65;0.65;;;;;;;26.49;33.94;99743.28;5164598;28;20071;-80
2022/08/15 00:27:27;;;;;;;0.55;0.55;;;;;;;26.45;33.85;99741.97;5201465;28;20042;-80
2022/08/15 00:30:02;;;;;;;0.20;0.20;;;;;;;26.35;34.21;99747.53;5192834;28;20030;-80
2022/08/15 00:32:36;;;;;;;0.25;0.25;;;;;;;26.34;34.12;99748.53;5194649;28;20663;-80
2022/08/15 00:35:36;;;;;;;0.28;0.28;;;;;;;26.26;34.14;99743.97;5177277;28;20033;-80
2022/08/15 00:37:59;;;;;;;0.40;0.40;;;;;;;26.26;34.35;99749.34;5218008;28;20041;-80
2022/08/15 00:41:39;;;;;;;0.22;0.22;;;;;;;26.24;34.43;99751.38;5161503;28;20125;-80
2022/08/15 00:43:23;;;;;;;1.15;1.05;;;;;;;26.14;34.83;99745.34;5192238;28;20057;-80
2022/08/15 00:45:57;;;;;;;0.22;0.22;;;;;;;26.11;34.94;99751.88;5160070;28;20056;-80
2022/08/15 00:48:42;;;;;;;0.43;0.43;;;;;;;26.07;35.30;99754.00;5164311;28;20029;-79
2022/08/15 00:51:26;;;;;;;0.50;0.50;;;;;;;26.03;35.20;99749.16;5158354;28;20045;-80
2022/08/15 00:54:19;;;;;;;2.90;1.35;;;;;;;25.93;35.81;99736.72;5227003;28;20394;-80
2022/08/15 00:57:08;;;;;;;6.93;1.42;;;;;;;25.92;36.12;99748.47;5203716;28;20038;-80
2022/08/15 00:59:44;;;;;;;0.40;0.40;;;;;;;25.92;35.94;99747.59;5197725;28;20054;-79
2022/08/15 01:02:18;;;;;;;0.38;0.38;;;;;;;25.93;36.69;99743.91;5198876;28;20049;-79
2022/08/15 01:04:50;;;;;;;1.13;0.95;;;;;;;25.93;36.16;99746.59;5189278;28;20037;-80
2022/08/15 01:07:27;;;;;;;0.57;0.57;;;;;;;25.91;36.57;99746.78;5201129;28;20123;-80
2022/08/15 01:09:58;;;;;;;0.45;0.45;;;;;;;25.82;37.26;99745.09;5214224;28;20026;-79
2022/08/15 01:12:30;;;;;;;0.20;0.20;;;;;;;25.86;37.32;99746.44;5164632;28;20365;-79
2022/08/15 01:15:09;;;;;;;0.30;0.30;;;;;;;25.90;36.78;99744.28;5180200;28;20051;-79
2022/08/15 01:17:40;;;;;;;0.77;0.77;;;;;;;25.79;37.71;99742.72;5163219;28;20029;-79
2022/08/15 01:20:19;;;;;;;8.30;1.27;;;;;;;25.85;37.41;99743.91;5165374;28;20045;-80
2022/08/15 01:23:05;;;;;;;0.30;0.30;;;;;;;25.78;37.81;99746.44;5177357;28;20049;-80
2022/08/15 01:25:50;;;;;;;0.20;0.20;;;;;;;25.80;38.00;99752.47;5218506;28;20048;-79
2022/08/15 01:28:28;;;;;;;10.50;1.17;;;;;;;25.78;37.77;99741.06;5164133;28;20561;-79
2022/08/15 01:31:17;;;;;;;2.30;0.95;;;;;;;25.85;37.83;99746.59;5180822;28;20033;-79
2022/08/15 01:33:51;;;;;;;0.52;0.50;;;;;;;25.76;37.95;99738.50;5173785;28;20037;-79
2022/08/15 01:36:28;;;;;;;0.20;0.20;;;;;;;25.72;38.21;99734.50;5157236;28;20651;-79
2022/08/15 01:39:16;;;;;;;1.55;1.30;;;;;;;25.67;38.97;99735.97;5172015;28;20045;-79
2022/08/15 01:41:52;;;;;;;2.83;0.85;;;;;;;25.59;39.07;99748.38;5188591;28;20053;-79
2022/08/15 01:44:33;;;;;;;0.43;0.43;;;;;;;25.57;39.23;99742.34;5173950;28;20045;-79
2022/08/15 01:47:29;;;;;;;1.35;1.13;;;;;;;25.57;39.14;99757.63;5220625;28;20068;-79
2022/08/15 01:50:20;;;;;;;0.45;0.45;;;;;;;25.59;39.01;99747.53;5180732;28;20039;-79
2022/08/15 01:53:18;;;;;;;0.30;0.30;;;;;;;25.58;38.45;99759.28;5193011;28;20038;-79
2022/08/15 01:56:23;;;;;;;1.55;0.85;;;;;;;25.63;38.89;99756.09;5178886;28;20061;-79
2022/08/15 01:58:53;;;;;;;0.10;0.10;;;;;;;25.57;39.12;99752.25;5199515;28;20057;-79
2022/08/15 02:01:44;;;;;;;1.25;1.08;;;;;;;25.63;38.40;99754.28;5194014;28;20079;-79
2022/08/15 02:04:20;;;;;;;0.40;0.40;;;;;;;25.55;38.89;99751.56;5197963;28;20029;-79
2022/08/15 02:06:52;;;;;;;0.38;0.38;;;;;;;25.61;38.59;99753.59;5186700;28;20121;-79
2022/08/15 02:09:26;;;;;;;0.50;0.50;;;;;;;25.49;39.65;99763.78;5177257;28;20041;-79
2022/08/15 02:12:00;;;;;;;1.27;0.28;;;;;;;25.58;38.28;99753.91;5223537;28;20048;-79
2022/08/15 02:14:35;;;;;;;0.77;0.77;;;;;;;25.59;38.58;99760.97;5180757;28;20053;-79
2022/08/15 02:17:09;;;;;;;;;;;;;;;25.58;38.46;99759.28;5208872;28;20030;-80
2022/08/15 02:19:42;;;;;;;0.88;0.73;;;;;;;25.56;39.30;99754.06;5208926;28;20020;-79
2022/08/15 02:22:14;;;;;;;0.30;0.30;;;;;;;25.62;38.83;99757.97;5201513;28;20068;-79
2022/08/15 02:24:45;;;;;;;0.63;0.50;;;;;;;25.61;38.18;99756.28;5195489;28;20173;-79
2022/08/15 02:27:16;;;;;;;0.60;0.60;;;;;;;25.60;38.53;99766.19;5191404;28;20057;-80
2022/08/15 02:29:46;;;;;;;0.68;0.68;;;;;;;25.58;38.43;99760.13;5187655;28;20114;-79
2022/08/15 02:32:18;;;;;;;0.50;0.50;;;;;;;25.61;37.98;99764.34;5180968;28;20758;-79
2022/08/15 02:34:48;;;;;;;0.30;0.30;;;;;;;25.61;39.05;99767.88;5172480;28;20405;-80
2022/08/15 02:37:19;;;;;;;0.43;0.43;;;;;;;25.49;39.54;99769.16;5178058;28;20037;-79
2022/08/15 02:39:52;;;;;;;2.13;1.55;;;;;;;25.43;38.79;99775.19;5177690;28;20696;-79
2022/08/15 02:42:22;;;;;;;0.47;0.47;;;;;;;25.48;39.38;99775.53;5181436;28;20045;-79
2022/08/15 02:44:53;;;;;;;0.30;0.30;;;;;;;25.50;37.94;99768.16;5200429;28;20036;-79
2022/08/15 02:47:24;;;;;;;0.20;0.20;;;;;;;25.50;38.28;99778.91;5188546;28;20157;-80
2022/08/15 02:49:57;;;;;;;0.55;0.55;;;;;;;25.50;39.32;99776.22;5186116;28;20075;-80
2022/08/15 02:52:28;;;;;;;0.28;0.28;;;;;;;25.50;38.14;99780.72;5162838;28;20045;-79
2022/08/15 02:55:00;;;;;;;0.20;0.20;;;;;;;25.50;38.01;99773.53;5179393;28;20037;-79
2022/08/15 02:57:42;;;;;;;0.35;0.35;;;;;;;25.54;37.68;99764.13;5161430;28;20582;-79
2022/08/15 03:00:31;;;;;;;0.28;0.28;;;;;;;25.53;38.06;99764.31;5169270;28;20029;-80
2022/08/15 03:03:52;;;;;;;0.20;0.20;;;;;;;25.53;37.86;99759.78;5178965;28;20518;-79
2022/08/15 03:06:40;;;;;;;0.22;0.22;;;;;;;25.43;39.18;99759.91;5134452;28;20294;-79
2022/08/15 03:09:34;;;;;;;0.90;0.85;;;;;;;25.41;38.97;99759.22;5185129;28;20045;-80
2022/08/15 03:12:16;;;;;;;2.25;1.38;;;;;;;25.36;39.47;99764.22;5189893;28;20037;-79
2022/08/15 03:14:48;;;;;;;1.95;0.75;;;;;;;25.26;39.96;99775.06;5175691;28;20206;-79
2022/08/15 03:17:20;;;;;;;0.30;0.30;;;;;;;25.21;39.65;99774.69;5181188;28;20126;-79
2022/08/15 03:19:53;;;;;;;0.70;0.70;;;;;;;25.21;39.95;99771.19;5201124;28;20029;-79
2022/08/15 03:22:29;;;;;;;0.88;0.88;;;;;;;25.18;39.48;99769.66;5210224;28;20034;-80
2022/08/15 03:24:59;;;;;;;6.60;1.00;;;;;;;25.21;39.31;99765.81;5205245;28;20033;-79
2022/08/15 03:27:30;;;;;;;0.30;0.30;;;;;;;25.17;39.19;99765.28;5184962;28;20266;-80
2022/08/15 03:30:09;;;;;;;0.25;0.25;;;;;;;25.12;39.81;99759.59;5194300;28;20045;-79
2022/08/15 03:32:51;;;;;;;0.20;0.20;;;;;;;25.09;39.91;99760.72;5198930;28;20133;-80
2022/08/15 03:35:25;;;;;;;0.55;0.55;;;;;;;24.94;40.86;99765.84;5161629;28;20029;-79
2022/08/15 03:37:58;;;;;;;0.45;0.45;;;;;;;25.07;39.74;99765.44;5160900;28;20545;-79
2022/08/15 03:40:29;;;;;;;0.30;0.30;;;;;;;24.95;40.75;99767.53;5174395;28;20058;-79
2022/08/15 03:43:11;;;;;;;0.30;0.30;;;;;;;24.93;40.71;99758.81;5201720;28;20037;-79
2022/08/15 03:45:45;;;;;;;0.40;0.40;;;;;;;24.93;40.62;99769.53;5208882;28;20064;-80
2022/08/15 03:48:18;;;;;;;0.52;0.52;;;;;;;24.89;41.00;99761.97;5186375;28;20045;-80
2022/08/15 03:50:53;;;;;;;0.85;0.52;;;;;;;24.89;40.59;99754.72;5180775;28;20065;-80
2022/08/15 03:53:25;;;;;;;1.75;0.88;;;;;;;24.93;39.82;99760.63;5192378;28;20146;-80
2022/08/15 03:55:58;;;;;;;1.75;1.20;;;;;;;24.87;41.06;99758.59;5182335;28;20033;-81
2022/08/15 03:58:31;;;;;;;4.57;1.00;;;;;;;24.90;40.76;99758.28;5210580;28;20053;-80
2022/08/15 04:01:06;;;;;;;5.43;1.35;;;;;;;24.92;40.36;99758.94;5188626;28;20045;-80
2022/08/15 04:03:37;;;;;;;3.92;1.52;;;;;;;24.82;41.46;99759.91;5221769;28;20046;-80
2022/08/15 04:06:10;;;;;;;0.28;0.28;;;;;;;24.70;41.89;99763.00;5204318;28;20440;-79
2022/08/15 04:08:42;;;;;;;0.30;0.30;;;;;;;24.69;41.45;99751.41;5165242;28;20033;-80
2022/08/15 04:11:14;;;;;;;0.30;0.30;;;;;;;24.75;40.59;99744.59;5176112;28;20136;-79
2022/08/15 04:13:46;;;;;;;1.20;0.85;;;;;;;24.70;41.75;99745.06;5174178;28;20034;-79
2022/08/15 04:16:19;;;;;;;1.92;0.98;;;;;;;24.70;41.14;99745.06;5175809;28;20092;-78
2022/08/15 04:18:50;;;;;;;0.77;0.77;;;;;;;24.72;41.71;99747.56;5174615;28;20033;-78
2022/08/15 04:21:20;;;;;;;0.57;0.57;;;;;;;24.72;41.53;99756.47;5195693;28;20046;-78
2022/08/15 04:23:51;;;;;;;6.82;0.70;;;;;;;24.72;41.29;99769.03;5172085;28;20560;-79
2022/08/15 04:26:22;;;;;;;0.75;0.25;;;;;;;24.66;42.44;99767.81;5185871;28;20576;-78
2022/08/15 04:28:53;;;;;;;1.15;0.85;;;;;;;24.61;42.66;99764.75;5181358;28;20040;-81
2022/08/15 04:31:25;;;;;;;0.47;0.47;;;;;;;24.61;42.19;99772.78;5189453;28;20041;-80
2022/08/15 04:33:55;;;;;;;0.30;0.30;;;;;;;24.64;41.47;99769.81;5203774;28;20034;-80
2022/08/15 04:36:26;;;;;;;0.57;0.57;;;;;;;24.65;42.22;99766.13;5153529;28;20414;-80
2022/08/15 04:38:57;;;;;;;0.15;0.15;;;;;;;24.64;41.58;99767.13;5182208;28;20036;-79
2022/08/15 04:41:31;;;;;;;0.40;0.40;;;;;;;24.61;41.35;99768.28;5192288;28;20045;-80
2022/08/15 04:44:14;;;;;;;0.30;0.30;;;;;;;24.66;41.71;99767.81;5162369;28;20595;-80
2022/08/15 04:46:47;;;;;;;0.52;0.52;;;;;;;24.62;42.11;99766.44;5175444;28;20142;-80
2022/08/15 04:49:21;;;;;;;0.55;0.55;;;;;;;24.65;41.26;99760.75;5181150;28;20238;-80
2022/08/15 04:51:52;;;;;;;0.40;0.40;;;;;;;24.66;41.51;99760.59;5173246;28;20044;-80
2022/08/15 04:54:22;;;;;;;0.30;0.30;;;;;;;24.65;41.88;99760.75;5162150;28;20025;-80
2022/08/15 04:56:53;;;;;;;0.30;0.30;;;;;;;24.67;40.82;99758.78;5172180;28;20084;-80
2022/08/15 04:59:24;;;;;;;0.30;0.30;;;;;;;24.70;41.68;99761.16;5165177;28;20026;-81
2022/08/15 05:01:55;;;;;;;0.88;0.57;;;;;;;24.68;40.96;99768.50;5177993;28;20025;-80
2022/08/15 05:04:25;;;;;;;0.30;0.30;;;;;;;24.69;41.17;99767.50;5183001;28;20064;-80
2022/08/15 05:07:09;;;;;;;;;;;;;;;;;;;;;
2022/08/15 05:09:49;;;;;;;8.32;1.65;;;;;;;24.73;41.17;99778.78;5195140;28;20037;-81
2022/08/15 05:12:20;;;;;;;0.30;0.30;;;;;;;24.60;42.22;99777.31;5161402;28;20076;-80
2022/08/15 05:14:51;;;;;;;0.30;0.30;;;;;;;24.66;42.20;99781.22;5180638;28;20033;-80
2022/08/15 05:17:21;;;;;;;0.45;0.45;;;;;;;24.58;42.61;99786.53;5167249;28;20629;-80
2022/08/15 05:19:52;;;;;;;0.50;0.50;;;;;;;24.56;42.83;99794.69;5167543;28;20017;-80
2022/08/15 05:22:22;;;;;;;0.30;0.30;;;;;;;24.52;43.08;99799.53;5185393;28;20049;-80
2022/08/15 05:24:53;;;;;;;0.25;0.25;;;;;;;24.50;43.52;99796.16;5176273;28;20025;-80
2022/08/15 05:27:24;;;;;;;0.68;0.30;;;;;;;24.54;42.76;99798.53;5186457;28;20398;-80
2022/08/15 05:29:55;;;;;;;0.20;0.20;;;;;;;24.48;43.68;99800.84;5218338;28;20026;-80
2022/08/15 05:32:25;;;;;;;0.25;0.25;;;;;;;24.45;43.24;99798.47;5184571;28;20038;-80
2022/08/15 05:34:57;;;;;;;3.53;1.27;;;;;;;24.50;42.53;99796.16;5203605;28;20031;-80
2022/08/15 05:37:30;;;;;;;0.25;0.25;;;;;;;24.56;42.01;99799.25;5163880;28;20038;-80
2022/08/15 05:40:17;;;;;;;0.40;0.40;;;;;;;24.59;42.79;99798.91;5198626;28;20083;-81
2022/08/15 05:43:11;;;;;;;0.28;0.28;;;;;;;24.48;43.91;99806.22;5179661;28;20041;-81
2022/08/15 05:46:12;;;;;;;0.22;0.22;;;;;;;24.46;43.68;99800.16;5202310;28;20100;-81
2022/08/15 05:48:46;;;;;;;3.70;0.65;;;;;;;24.47;42.91;99801.84;5179624;28;20502;-80
2022/08/15 05:51:29;;;;;;;5.55;1.25;;;;;;;24.49;43.69;99807.06;5181168;28;20411;-80
2022/08/15 05:54:32;;;;;;;1.33;0.95;;;;;;;24.36;44.96;99808.28;5193083;28;20029;-80
2022/08/15 05:57:14;;;;;;;0.55;0.55;;;;;;;24.39;45.06;99817.00;5206929;28;20044;-81
2022/08/15 05:59:50;;;;;;;0.40;0.40;;;;;;;24.43;44.55;99813.88;5175292;28;20033;-81
2022/08/15 06:02:45;;;;;;;0.90;0.45;;;;;;;24.39;44.57;99815.19;5181809;28;20128;-80
2022/08/15 06:05:46;;;;;;;0.30;0.30;;;;;;;24.28;46.06;99818.09;5224510;28;20550;-80
2022/08/15 06:08:31;;;;;;;2.20;1.02;;;;;;;24.36;45.31;99819.03;5182279;28;20041;-81
2022/08/15 06:11:17;;;;;;;0.30;0.30;;;;;;;24.32;45.77;99811.44;5199709;28;20099;-80
2022/08/15 06:13:57;;;;;;;0.43;0.43;;;;;;;24.43;44.57;99807.69;5178597;28;20045;-80
2022/08/15 06:16:32;;;;;;;3.10;1.38;;;;;;;24.36;46.12;99810.97;5206285;28;20570;-80
2022/08/15 06:19:24;;;;;;;0.98;0.90;;;;;;;24.31;46.33;99807.91;5184390;28;20022;-80
2022/08/15 06:22:24;;;;;;;0.15;0.15;;;;;;;24.34;46.41;99817.47;5196319;28;20071;-80
2022/08/15 06:25:21;;;;;;;1.10;0.70;;;;;;;24.37;46.51;99822.53;5184662;28;20038;-80
2022/08/15 06:28:21;;;;;;;0.85;0.85;;;;;;;24.25;47.20;99818.41;5210111;28;20042;-80
2022/08/15 06:31:10;;;;;;;0.47;0.47;;;;;;;24.33;46.10;99827.34;5222084;28;20038;-81
2022/08/15 06:34:16;;;;;;;0.52;0.52;;;;;;;24.28;47.41;99821.63;5205637;28;20033;-81
2022/08/15 06:36:54;;;;;;;1.15;0.85;;;;;;;24.35;45.68;99819.16;5180922;28;20037;-80
2022/08/15 06:39:37;;;;;;;0.80;0.80;;;;;;;24.29;48.24;99815.28;5182170;28;20689;-80
2022/08/15 06:42:43;;;;;;;;;;;;;;;;;;;;;
2022/08/15 06:45:29;;;;;;;1.48;1.30;;;;;;;24.37;46.98;99811.81;5181887;28;20037;-81
2022/08/15 06:48:04;;;;;;;0.55;0.55;;;;;;;24.34;48.36;99815.63;5199254;28;20049;-81
2022/08/15 06:50:47;;;;;;;0.20;0.20;;;;;;;24.31;47.67;99812.44;5195201;28;20711;-80
2022/08/15 06:53:25;;;;;;;1.05;0.95;;;;;;;24.34;47.88;99822.81;5184349;28;20029;-80
2022/08/15 06:56:24;;;;;;;0.40;0.40;;;;;;;24.31;47.87;99823.16;5176800;28;20534;-79
2022/08/15 06:59:36;;;;;;;0.28;0.28;;;;;;;24.23;48.38;99825.75;5201989;28;20105;-80
2022/08/15 07:02:47;;;;;;;0.95;0.73;;;;;;;24.24;48.42;99825.59;5190776;28;20116;-80
2022/08/15 07:05:45;;;;;;;0.82;0.82;;;;;;;24.19;48.96;99831.41;5099336;28;20065;-80
2022/08/15 07:08:34;;;;;;;0.35;0.32;;;;;;;24.29;47.72;99830.50;5182579;28;20065;-81
2022/08/15 07:11:37;;;;;;;0.32;0.30;;;;;;;24.26;48.44;99825.44;5168990;28;20437;-80
2022/08/15 07:14:11;;;;;;;0.30;0.30;;;;;;;24.26;48.30;99831.66;5188994;28;20422;-80
2022/08/15 07:17:08;;;;;;;0.28;0.28;;;;;;;24.11;50.02;99835.84;5163130;28;20068;-80
2022/08/15 07:19:39;;;;;;;1.40;0.40;;;;;;;24.20;48.89;99841.13;5182054;28;20025;-80
2022/08/15 07:22:11;;;;;;;0.38;0.38;;;;;;;24.24;49.24;99838.16;5188477;28;20030;-81
2022/08/15 07:24:52;;;;;;;0.50;0.50;;;;;;;24.23;48.43;99831.09;5195504;28;20037;-80
2022/08/15 07:27:33;;;;;;;0.20;0.20;;;;;;;24.19;49.34;99839.44;5205857;28;20384;-80
2022/08/15 07:30:20;;;;;;;0.60;0.60;;;;;;;24.18;49.91;99843.13;5195974;28;20026;-80
2022/08/15 07:32:55;;;;;;;1.67;1.50;;;;;;;24.17;50.18;99846.78;5205686;28;20050;-80
2022/08/15 07:35:33;;;;;;;0.30;0.30;;;;;;;24.21;48.33;99850.03;5180511;28;20040;-79
2022/08/15 07:38:09;;;;;;;0.30;0.30;;;;;;;24.29;47.80;99847.44;5206754;28;20044;-79
2022/08/15 07:40:43;;;;;;;4.40;1.00;;;;;;;24.34;47.65;99849.63;5197863;28;20037;-80
2022/08/15 07:43:32;;;;;;;0.50;0.50;;;;;;;24.40;48.19;99843.69;5179492;28;20045;-80
2022/08/15 07:46:36;;;;;;;0.20;0.20;;;;;;;24.37;49.47;99849.34;5197045;28;20048;-80
2022/08/15 07:49:16;;;;;;;0.52;0.52;;;;;;;24.38;49.18;99851.03;5182533;28;20029;-80
2022/08/15 07:52:23;;;;;;;1.23;1.13;;;;;;;24.43;48.00;99853.25;5181621;28;20076;-79
2022/08/15 07:54:56;;;;;;;13.52;2.33;;;;;;;24.44;49.97;99857.63;5211497;28;20754;-80
2022/08/15 07:57:29;;;;;;;;;;;;;;;24.43;49.93;99859.44;5197051;28;20037;-80
2022/08/15 08:00:18;;;;;;;0.30;0.30;;;;;;;24.47;49.11;99852.78;5212995;28;19913;-80
2022/08/15 08:02:54;;;;;;;0.20;0.20;;;;;;;24.53;49.08;99859.38;5195935;28;20041;-80
2022/08/15 08:05:29;;;;;;;0.30;0.30;;;;;;;24.49;50.08;99858.84;5164976;28;20046;-80
2022/08/15 08:08:05;;;;;;;0.50;0.50;;;;;;;24.60;50.43;99859.59;5167088;28;20041;-80
2022/08/15 08:11:04;;;;;;;0.35;0.35;;;;;;;24.45;50.97;99862.81;5204975;28;20069;-79
2022/08/15 08:13:58;;;;;;;2.80;1.00;;;;;;;24.47;50.78;99862.66;5194606;28;20044;-80
2022/08/15 08:16:40;;;;;;;1.42;1.33;;;;;;;24.41;50.87;99858.78;5182312;28;20047;-80
2022/08/15 08:19:34;;;;;;;0.77;0.77;;;;;;;24.58;49.55;99861.59;5188608;28;20075;-80
2022/08/15 08:22:05;;;;;;;0.65;0.50;;;;;;;24.57;50.45;99865.28;5213047;28;20033;-81
2022/08/15 08:24:55;;;;;;;0.30;0.30;;;;;;;24.45;50.13;99864.66;5205994;28;20029;-81
2022/08/15 08:27:46;;;;;;;0.55;0.55;;;;;;;24.52;50.63;99861.22;5157573;28;20072;-81
2022/08/15 08:30:23;;;;;;;0.28;0.28;;;;;;;24.34;51.59;99868.41;5174473;28;20104;-80
2022/08/15 08:33:17;;;;;;;0.50;0.50;;;;;;;24.42;51.24;99864.97;5185253;28;20068;-80
2022/08/15 08:35:54;;;;;;;0.63;0.55;;;;;;;24.35;51.69;99873.63;5205420;28;20041;-79
2022/08/15 08:38:42;;;;;;;1.45;1.35;;;;;;;24.35;51.62;99873.63;5213486;28;20037;-79
2022/08/15 08:41:24;;;;;;;0.98;0.98;;;;;;;24.34;51.66;99879.13;5202278;28;20030;-81
2022/08/15 08:44:42;;;;;;;0.20;0.20;;;;;;;24.30;52.22;99885.78;5231945;28;20037;-80
2022/08/15 08:47:45;;;;;;;0.52;0.52;;;;;;;24.32;51.70;99884.63;5184387;28;20048;-80
2022/08/15 08:50:28;;;;;;;0.45;0.45;;;;;;;24.37;50.85;99876.13;5171168;28;20042;-81
2022/08/15 08:53:19;;;;;;;0.35;0.35;;;;;;;24.38;50.40;99872.47;5199281;28;20049;-82
2022/08/15 08:55:56;;;;;;;0.38;0.38;;;;;;;24.40;51.10;99870.50;5171042;28;20144;-78
2022/08/15 08:58:36;;;;;;;1.88;1.63;;;;;;;24.42;50.83;99868.47;5174202;28;20049;-79
2022/08/15 09:01:14;;;;;;;0.55;0.55;;;;;;;24.51;49.33;99875.59;5183351;28;20084;-79
2022/08/15 09:04:10;;;;;;;0.80;0.77;;;;;;;24.52;50.94;99879.97;5173671;28;20494;-79
2022/08/15 09:06:43;;;;;;;0.85;0.55;;;;;;;24.58;49.49;99888.41;5195936;28;20025;-80
2022/08/15 09:09:17;;;;;;;0.43;0.43;;;;;;;24.67;49.72;99890.19;5225867;28;20041;-80
2022/08/15 09:12:02;;;;;;;0.50;0.50;;;;;;;24.54;50.87;99893.25;5206562;28;20037;-80
2022/08/15 09:14:43;;;;;;;0.52;0.52;;;;;;;24.56;51.80;99890.41;5187605;28;20029;-79
2022/08/15 09:17:16;;;;;;;0.60;0.60;;;;;;;24.63;50.46;99902.19;5189641;28;20049;-80
2022/08/15 09:20:07;;;;;;;1.98;0.52;;;;;;;24.65;50.17;99900.22;5196466;28;20033;-80
2022/08/15 09:22:39;;;;;;;0.28;0.28;;;;;;;24.70;50.38;99899.78;5192023;28;20062;-80
2022/08/15 09:25:12;;;;;;;0.57;0.57;;;;;;;24.75;50.49;99895.63;5208445;28;20056;-80
2022/08/15 09:28:01;;;;;;;0.50;0.50;;;;;;;24.76;50.56;99897.31;5205583;28;20071;-80
2022/08/15 09:30:43;;;;;;;0.20;0.20;;;;;;;24.65;51.32;99898.38;5215134;28;20044;-80
2022/08/15 09:33:17;;;;;;;0.45;0.45;;;;;;;24.71;50.58;99902.31;5206902;28;20564;-81
2022/08/15 09:36:17;;;;;;;0.30;0.30;;;;;;;24.63;51.49;99899.53;5205715;28;20033;-81
2022/08/15 09:39:12;;;;;;;0.30;0.30;;;;;;;24.76;51.53;99891.94;5211836;28;20032;-80
2022/08/15 09:41:51;;;;;;;0.85;0.73;;;;;;;24.69;51.26;99898.09;5185506;28;20041;-80
2022/08/15 09:45:01;;;;;;;0.40;0.40;;;;;;;24.74;51.48;99891.28;5202408;28;20521;-80
2022/08/15 09:48:00;;;;;;;0.20;0.20;;;;;;;24.69;51.81;99884.69;5118761;28;20102;-80
2022/08/15 09:50:59;;;;;;;0.63;0.52;;;;;;;24.64;51.88;99890.47;5158713;28;20048;-80
2022/08/15 09:53:57;;;;;;;0.90;0.75;;;;;;;24.59;52.94;99893.63;5175571;28;20032;-80
2022/08/15 09:56:31;;;;;;;0.65;0.65;;;;;;;24.60;52.74;99891.78;5195589;28;20044;-80
2022/08/15 09:59:17;;;;;;;0.85;0.75;;;;;;;24.59;53.01;99895.44;5185176;28;20110;-80
2022/08/15 10:01:52;;;;;;;0.85;0.70;;;;;;;24.59;53.31;99890.09;5194961;28;20073;-80
2022/08/15 10:04:39;;;;;;;0.20;0.20;;;;;;;24.58;53.82;99899.16;5193741;28;20025;-80
2022/08/15 10:07:10;;;;;;;0.30;0.30;;;;;;;24.58;54.27;99894.63;5185923;28;20497;-81
2022/08/15 10:10:11;;;;;;;;;;;;;;;;;;;;;
2022/08/15 10:13:07;;;;;;;0.32;0.32;;;;;;;24.73;54.48;99902.16;5208078;28;20062;-80
2022/08/15 10:15:45;;;;;;;0.30;0.30;;;;;;;24.73;54.48;99896.78;5198893;28;20044;-80
2022/08/15 10:18:22;;;;;;;13.30;1.95;;;;;;;24.62;54.41;99887.09;5205306;28;20289;-81
2022/08/15 10:20:55;;;;;;;0.50;0.50;;;;;;;24.64;54.93;99890.47;5189729;28;20124;-80
2022/08/15 10:23:33;;;;;;;0.45;0.45;;;;;;;24.69;55.20;99895.41;5192702;28;20114;-80
2022/08/15 10:26:22;;;;;;;1.73;1.17;;;;;;;24.72;53.57;99895.09;5195475;28;20030;-81
2022/08/15 10:29:16;;;;;;;0.73;0.73;;;;;;;24.67;53.71;99892.88;5181730;28;20121;-80
2022/08/15 10:31:57;;;;;;;0.40;0.40;;;;;;;24.69;51.55;99898.94;5177282;28;20613;-80
2022/08/15 10:34:57;;;;;;;1.58;0.88;;;;;;;24.70;52.65;99902.47;5184646;28;20025;-81
2022/08/15 10:37:31;;;;;;;0.80;0.57;;;;;;;24.66;52.33;99909.94;5195470;28;20128;-81
2022/08/15 10:40:22;;;;;;;0.43;0.43;;;;;;;24.66;53.03;99907.28;5208767;28;20067;-80
2022/08/15 10:43:17;;;;;;;1.35;0.73;;;;;;;24.69;51.51;99922.25;5189840;28;20044;-80
2022/08/15 10:45:56;;;;;;;2.58;0.50;;;;;;;24.69;52.31;99920.38;5199172;28;20053;-81
2022/08/15 10:48:53;;;;;;;0.82;0.73;;;;;;;24.69;51.98;99928.44;5196229;28;20029;-80
2022/08/15 10:51:53;;;;;;;0.32;0.32;;;;;;;24.60;54.10;99926.63;5203981;28;20036;-81
2022/08/15 10:54:45;;;;;;;0.40;0.40;;;;;;;24.69;52.32;99925.75;5197296;28;20083;-81
2022/08/15 10:57:19;;;;;;;1.30;1.07;;;;;;;24.65;52.42;99932.41;5208499;28;20052;-80
2022/08/15 10:59:54;;;;;;;0.40;0.40;;;;;;;24.64;53.40;99926.19;5167076;28;20025;-80
2022/08/15 11:02:45;;;;;;;2.40;1.58;;;;;;;24.42;55.66;99932.81;5175928;28;20044;-81
2022/08/15 11:05:20;;;;;;;0.68;0.68;;;;;;;24.43;54.92;99931.81;5216498;28;20041;-81
2022/08/15 11:07:59;;;;;;;0.30;0.30;;;;;;;24.52;53.93;99930.09;5214471;28;20510;-80
2022/08/15 11:10:32;;;;;;;0.40;0.40;;;;;;;24.60;52.91;99929.31;5204980;28;20025;-81
2022/08/15 11:13:14;;;;;;;2.05;0.60;;;;;;;24.66;52.45;99939.47;5200828;28;20037;-80
2022/08/15 11:15:54;;;;;;;1.23;0.95;;;;;;;24.64;52.84;99942.28;5228934;28;20109;-80
2022/08/15 11:18:29;;;;;;;0.30;0.30;;;;;;;24.71;52.62;99936.34;5227040;28;20021;-82
2022/08/15 11:21:32;;;;;;;0.50;0.50;;;;;;;24.70;53.28;99943.53;5236295;28;20088;-83
2022/08/15 11:24:11;;;;;;;0.30;0.30;;;;;;;24.66;52.94;99931.41;5190058;28;20090;-82
2022/08/15 11:26:44;;;;;;;2.08;1.17;;;;;;;24.62;53.97;99938.06;5187881;28;20053;-81
2022/08/15 11:29:22;;;;;;;1.55;0.82;;;;;;;24.49;54.65;99933.94;5194883;28;20029;-81
2022/08/15 11:31:54;;;;;;;1.92;0.52;;;;;;;24.43;54.34;99942.56;5196164;28;20037;-83
2022/08/15 11:34:33;;;;;;;0.75;0.75;;;;;;;24.55;53.72;99931.63;5199282;28;20047;-81
2022/08/15 11:37:14;;;;;;;0.73;0.65;;;;;;;24.50;54.06;99940.94;5217583;28;20310;-80
2022/08/15 11:40:17;;;;;;;0.75;0.60;;;;;;;24.50;54.32;99940.13;5207140;28;20062;-81
2022/08/15 11:42:50;;;;;;;0.45;0.45;;;;;;;24.47;53.80;99935.03;5201265;28;20036;-80
2022/08/15 11:45:24;;;;;;;1.25;1.15;;;;;;;24.44;54.99;99941.56;5194372;28;20152;-81
2022/08/15 11:47:58;;;;;;;3.20;1.42;;;;;;;24.41;55.96;99941.88;5224330;28;20409;-81
2022/08/15 11:50:37;;;;;;;0.20;0.20;;;;;;;24.31;56.33;99936.56;5233214;28;20033;-81
2022/08/15 11:53:11;;;;;;;0.45;0.45;;;;;;;24.34;56.09;99932.72;5199914;28;20088;-81
2022/08/15 11:55:45;;;;;;;0.85;0.63;;;;;;;24.34;55.18;99930.03;5201208;28;20025;-80
2022/08/15 11:58:15;;;;;;;0.47;0.47;;;;;;;24.26;57.18;99928.13;5204627;28;20029;-80
2022/08/15 12:00:50;;;;;;;0.30;0.30;;;;;;;24.22;56.60;99923.22;5209352;28;20045;-80
2022/08/15 12:03:35;;;;;;;2.05;1.48;;;;;;;24.17;57.63;99919.13;5218686;28;20060;-81
2022/08/15 12:06:11;;;;;;;0.57;0.57;;;;;;;24.27;56.73;99923.59;5206262;28;20091;-80
2022/08/15 12:08:45;;;;;;;0.30;0.30;;;;;;;24.13;58.50;99916.94;5201076;28;20045;-81
2022/08/15 12:11:22;;;;;;;0.32;0.32;;;;;;;24.14;56.46;99924.81;5209309;28;20040;-81
2022/08/15 12:13:54;;;;;;;0.60;0.60;;;;;;;24.22;54.91;99920.53;5202348;28;20563;-80
2022/08/15 12:16:31;;;;;;;0.30;0.30;;;;;;;24.20;55.33;99929.56;5197726;28;20501;-80
2022/08/15 12:19:29;;;;;;;1.85;0.85;;;;;;;24.29;57.15;99926.97;5185636;28;20317;-80
2022/08/15 12:22:15;;;;;;;2.35;0.88;;;;;;;24.44;58.15;99930.84;5197862;28;20671;-80
2022/08/15 12:24:46;;;;;;;0.60;0.60;;;;;;;24.51;58.10;99934.59;5187266;28;20042;-80
2022/08/15 12:27:17;;;;;;;0.35;0.35;;;;;;;24.62;56.33;99933.56;5202494;28;20045;-80
2022/08/15 12:29:50;;;;;;;0.70;0.68;;;;;;;24.74;55.83;99936.03;5203268;28;20108;-80
2022/08/15 12:32:21;;;;;;;17.52;1.27;;;;;;;24.85;55.83;99932.25;5220085;28;20043;-79
2022/08/15 12:34:54;;;;;;;0.98;0.82;;;;;;;24.91;54.96;99932.50;5214883;28;20032;-80
2022/08/15 12:37:28;;;;;;;0.88;0.77;;;;;;;24.89;55.39;99928.28;5193903;28;20075;-79
2022/08/15 12:40:06;;;;;;;2.47;1.52;;;;;;;24.99;54.53;99939.78;5204175;28;20670;-80